createdAt,value
2023-05-05T00:00:34.632Z,13.09
2023-05-05T00:03:03.217Z,13.09
2023-05-05T00:05:31.681Z,13.13
2023-05-05T00:08:00.071Z,13.08
2023-05-05T00:10:28.317Z,13.06
2023-05-05T00:12:57.055Z,13.11
2023-05-05T00:15:27.459Z,13.10
2023-05-05T00:17:56.482Z,13.11
2023-05-05T00:20:24.628Z,13.09
2023-05-05T00:22:55.274Z,13.15
2023-05-05T00:25:24.069Z,13.14
2023-05-05T00:27:52.084Z,13.15
2023-05-05T00:30:20.708Z,13.19
2023-05-05T00:32:50.798Z,13.20
2023-05-05T00:35:20.107Z,13.22
2023-05-05T00:37:49.227Z,13.22
2023-05-05T00:40:18.751Z,13.22
2023-05-05T00:42:48.170Z,13.25
2023-05-05T00:45:17.246Z,13.27
2023-05-05T00:47:49.172Z,13.25
2023-05-05T00:50:25.506Z,13.22
2023-05-05T00:52:57.146Z,13.26
2023-05-05T00:55:29.419Z,13.24
2023-05-05T00:57:59.037Z,13.27
2023-05-05T01:00:28.209Z,13.32
2023-05-05T01:02:57.368Z,13.33
2023-05-05T01:05:29.137Z,13.55
2023-05-05T01:08:13.387Z,13.48
2023-05-05T01:10:46.399Z,13.39
2023-05-05T01:13:22.777Z,13.32
2023-05-05T01:15:57.551Z,13.22
2023-05-05T01:18:33.553Z,13.15
2023-05-05T01:21:13.762Z,13.06
2023-05-05T01:24:11.722Z,12.95
2023-05-05T01:27:09.681Z,12.81
2023-05-05T01:29:51.690Z,12.72
2023-05-05T01:32:25.634Z,12.58
2023-05-05T01:34:58.796Z,12.51
2023-05-05T01:37:31.860Z,12.41
2023-05-05T01:40:05.290Z,12.36
2023-05-05T01:42:36.705Z,12.42
2023-05-05T01:45:08.196Z,12.40
2023-05-05T01:47:40.486Z,12.34
2023-05-05T01:50:12.554Z,12.30
2023-05-05T01:52:42.718Z,12.28
2023-05-05T01:55:12.400Z,12.29
2023-05-05T01:57:43.671Z,12.30
2023-05-05T02:00:13.170Z,12.35
2023-05-05T02:02:50.477Z,12.43
2023-05-05T02:05:22.752Z,12.48
2023-05-05T02:07:53.951Z,12.49
2023-05-05T02:10:22.527Z,12.54
2023-05-05T02:12:53.630Z,12.61
2023-05-05T02:15:26.154Z,12.72
2023-05-05T02:17:57.561Z,12.74
2023-05-05T02:20:25.815Z,12.72
2023-05-05T02:22:55.030Z,12.67
2023-05-05T02:25:24.829Z,12.67
2023-05-05T02:27:57.846Z,12.63
2023-05-05T02:30:28.842Z,12.57
2023-05-05T02:33:05.146Z,12.47
2023-05-05T02:35:37.774Z,12.36
2023-05-05T02:38:14.767Z,12.29
2023-05-05T02:40:46.045Z,12.23
2023-05-05T02:43:20.868Z,12.16
2023-05-05T02:45:49.713Z,12.10
2023-05-05T02:48:21.101Z,12.00
2023-05-05T02:50:50.932Z,11.93
2023-05-05T02:53:27.978Z,11.86
2023-05-05T02:56:03.005Z,11.81
2023-05-05T02:58:43.986Z,11.72
2023-05-05T03:01:28.009Z,11.67
2023-05-05T03:04:07.375Z,11.66
2023-05-05T03:06:44.545Z,11.61
2023-05-05T03:09:26.865Z,11.58
2023-05-05T03:12:03.870Z,11.47
2023-05-05T03:14:42.181Z,11.48
2023-05-05T03:17:14.509Z,11.42
2023-05-05T03:19:45.365Z,11.40
2023-05-05T03:22:13.971Z,11.35
2023-05-05T03:24:51.028Z,11.31
2023-05-05T03:27:22.935Z,11.29
2023-05-05T03:29:51.445Z,11.25
2023-05-05T03:32:19.766Z,11.20
2023-05-05T03:34:49.455Z,11.17
2023-05-05T03:37:17.951Z,11.20
2023-05-05T03:39:46.343Z,11.17
2023-05-05T03:42:14.494Z,11.18
2023-05-05T03:44:42.795Z,11.15
2023-05-05T03:47:10.908Z,11.10
2023-05-05T03:49:41.147Z,10.93
2023-05-05T03:52:13.252Z,11.06
2023-05-05T03:54:43.574Z,10.99
2023-05-05T03:57:11.827Z,11.05
2023-05-05T03:59:40.005Z,11.05
2023-05-05T04:02:08.860Z,11.08
2023-05-05T04:04:39.928Z,11.13
2023-05-05T04:07:08.530Z,11.22
2023-05-05T04:09:39.216Z,11.23
2023-05-05T04:12:07.825Z,11.24
2023-05-05T04:14:36.184Z,11.23
2023-05-05T04:17:04.550Z,11.26
2023-05-05T04:19:33.571Z,11.35
2023-05-05T04:22:03.287Z,11.38
2023-05-05T04:24:31.954Z,11.46
2023-05-05T04:27:04.388Z,11.50
2023-05-05T04:29:32.645Z,11.55
2023-05-05T04:32:01.982Z,11.60
2023-05-05T04:34:30.657Z,11.77
2023-05-05T04:36:58.951Z,11.85
2023-05-05T04:39:45.912Z,11.94
2023-05-05T04:42:15.890Z,11.98
2023-05-05T04:44:44.209Z,12.07
2023-05-05T04:47:14.680Z,12.14
2023-05-05T04:49:44.903Z,12.26
2023-05-05T04:52:14.344Z,12.39
2023-05-05T04:54:43.236Z,12.51
2023-05-05T04:58:49.328Z,12.71
2023-05-05T05:01:20.116Z,12.87
2023-05-05T05:03:48.568Z,13.03
2023-05-05T05:06:16.830Z,13.26
2023-05-05T05:08:47.304Z,13.43
2023-05-05T05:11:15.625Z,13.72
2023-05-05T05:13:44.001Z,14.19
2023-05-05T05:16:14.106Z,14.56
2023-05-05T05:18:42.812Z,15.04
2023-05-05T05:21:11.255Z,15.36
2023-05-05T05:23:40.360Z,15.68
2023-05-05T05:26:09.274Z,15.93
2023-05-05T05:28:37.714Z,15.93
2023-05-05T05:31:06.824Z,15.65
2023-05-05T05:33:36.493Z,15.60
2023-05-05T05:36:05.251Z,15.58
2023-05-05T05:38:33.384Z,15.45
2023-05-05T05:41:07.456Z,15.39
2023-05-05T05:43:37.042Z,15.28
2023-05-05T05:46:09.447Z,15.40
2023-05-05T05:48:41.235Z,15.37
2023-05-05T05:51:11.967Z,15.48
2023-05-05T05:53:40.146Z,15.43
2023-05-05T05:56:10.575Z,15.25
2023-05-05T05:58:39.288Z,15.15
2023-05-05T06:01:10.651Z,15.13
2023-05-05T06:03:39.105Z,15.20
2023-05-05T06:06:09.453Z,15.30
2023-05-05T06:08:38.189Z,15.41
2023-05-05T06:11:06.472Z,15.40
2023-05-05T06:13:35.376Z,15.49
2023-05-05T06:16:03.626Z,15.57
2023-05-05T06:18:34.693Z,15.83
2023-05-05T06:21:03.364Z,15.92
2023-05-05T06:23:35.159Z,15.96
2023-05-05T06:26:06.886Z,16.29
2023-05-05T06:28:35.357Z,16.95
2023-05-05T06:31:03.519Z,18.03
2023-05-05T06:33:31.756Z,18.78
2023-05-05T06:35:59.859Z,18.89
2023-05-05T06:38:28.072Z,18.85
2023-05-05T06:40:58.613Z,18.89
2023-05-05T06:43:31.849Z,19.19
2023-05-05T06:46:02.697Z,19.57
2023-05-05T06:48:33.490Z,19.70
2023-05-05T06:51:03.078Z,19.21
2023-05-05T06:53:31.924Z,18.82
2023-05-05T06:56:01.506Z,18.52
2023-05-05T06:58:33.023Z,18.64
2023-05-05T07:01:01.461Z,19.14
2023-05-05T07:03:29.731Z,20.44
2023-05-05T07:05:57.814Z,21.48
2023-05-05T07:08:26.535Z,21.28
2023-05-05T07:10:55.294Z,22.72
2023-05-05T07:13:25.362Z,23.63
2023-05-05T07:15:53.581Z,24.26
2023-05-05T07:18:21.584Z,24.37
2023-05-05T07:20:52.054Z,23.66
2023-05-05T07:23:20.387Z,23.05
2023-05-05T07:25:48.592Z,22.50
2023-05-05T07:28:16.941Z,24.02
2023-05-05T07:30:46.428Z,23.21
2023-05-05T07:33:14.538Z,22.83
2023-05-05T07:35:42.985Z,23.15
2023-05-05T07:38:11.218Z,23.64
2023-05-05T07:40:41.642Z,23.83
2023-05-05T07:43:10.001Z,23.30
2023-05-05T07:45:38.212Z,23.58
2023-05-05T07:48:07.900Z,23.21
2023-05-05T07:50:36.296Z,24.12
2023-05-05T07:53:13.529Z,24.76
2023-05-05T07:55:43.357Z,25.61
2023-05-05T07:58:11.967Z,25.84
2023-05-05T08:00:40.983Z,25.32
2023-05-05T08:03:12.155Z,25.82
2023-05-05T08:05:40.664Z,25.78
2023-05-05T08:08:09.396Z,26.40
2023-05-05T08:10:40.141Z,26.40
2023-05-05T08:13:08.319Z,27.58
2023-05-05T08:15:36.652Z,28.72
2023-05-05T08:18:05.044Z,27.44
2023-05-05T08:20:34.814Z,27.30
2023-05-05T08:23:05.916Z,27.92
2023-05-05T08:25:34.157Z,29.15
2023-05-05T08:28:02.320Z,27.84
2023-05-05T08:30:31.323Z,28.73
2023-05-05T08:33:00.626Z,28.23
2023-05-05T08:35:29.212Z,28.56
2023-05-05T08:37:59.297Z,29.43
2023-05-05T08:40:33.358Z,29.77
2023-05-05T08:43:04.190Z,29.47
2023-05-05T08:45:33.093Z,29.37
2023-05-05T08:48:05.950Z,29.89
2023-05-05T08:50:34.527Z,28.90
2023-05-05T08:53:11.585Z,30.81
2023-05-05T08:55:47.409Z,31.09
2023-05-05T08:58:18.904Z,29.32
2023-05-05T09:00:47.608Z,30.29
2023-05-05T09:03:17.346Z,30.66
2023-05-05T09:05:45.871Z,30.97
2023-05-05T09:08:18.014Z,30.59
2023-05-05T09:10:46.740Z,32.13
2023-05-05T09:13:14.912Z,31.45
2023-05-05T09:15:43.280Z,32.58
2023-05-05T09:18:12.458Z,31.97
2023-05-05T09:20:42.178Z,31.53
2023-05-05T09:23:12.147Z,30.66
2023-05-05T09:25:42.963Z,31.43
2023-05-05T09:28:15.775Z,33.07
2023-05-05T09:30:46.071Z,32.89
2023-05-05T09:33:15.839Z,32.31
2023-05-05T09:35:52.209Z,33.09
2023-05-05T09:38:21.652Z,31.91
2023-05-05T09:40:54.242Z,31.49
2023-05-05T09:43:24.016Z,31.19
2023-05-05T09:45:52.738Z,32.53
2023-05-05T09:48:28.678Z,32.69
2023-05-05T09:50:57.709Z,34.79
2023-05-05T09:53:40.871Z,33.36
2023-05-05T09:56:11.115Z,34.14
2023-05-05T09:59:58.718Z,35.77
2023-05-05T10:02:34.656Z,33.84
2023-05-05T10:05:10.998Z,33.23
2023-05-05T10:07:40.979Z,34.03
2023-05-05T10:10:10.375Z,34.27
2023-05-05T10:12:39.314Z,33.90
2023-05-05T10:15:12.340Z,31.44
2023-05-05T10:18:02.234Z,31.25
2023-05-05T10:20:36.436Z,30.65
2023-05-05T10:23:06.938Z,30.46
2023-05-05T10:25:43.129Z,30.79
2023-05-05T10:28:17.708Z,30.93
2023-05-05T10:30:53.636Z,30.83
2023-05-05T10:36:01.987Z,28.70
2023-05-05T10:38:31.407Z,28.24
2023-05-05T10:41:00.762Z,27.90
2023-05-05T10:43:30.365Z,27.69
2023-05-05T10:46:00.869Z,28.45
2023-05-05T10:48:35.502Z,28.28
2023-05-05T10:51:27.439Z,27.65
2023-05-05T10:54:10.450Z,26.64
2023-05-05T10:56:42.192Z,26.67
2023-05-05T10:59:41.155Z,27.66
2023-05-05T11:02:28.094Z,28.63
2023-05-05T11:05:24.206Z,28.85
2023-05-05T11:07:52.919Z,27.73
2023-05-05T11:10:23.278Z,27.50
2023-05-05T11:13:20.726Z,26.60
2023-05-05T11:15:50.406Z,26.85
2023-05-05T11:18:36.009Z,26.41
2023-05-05T11:21:22.306Z,25.83
2023-05-05T11:23:52.078Z,25.86
2023-05-05T11:26:51.379Z,25.45
2023-05-05T11:32:15.855Z,25.76
2023-05-05T11:34:51.645Z,25.25
2023-05-05T11:37:24.085Z,24.71
2023-05-05T11:40:05.302Z,24.33
2023-05-05T11:42:33.892Z,23.63
2023-05-05T11:45:02.326Z,23.75
2023-05-05T11:47:34.122Z,24.00
2023-05-05T11:50:23.254Z,24.31
2023-05-05T11:52:51.895Z,25.64
2023-05-05T11:55:24.016Z,26.24
2023-05-05T11:57:52.687Z,26.18
2023-05-05T12:00:33.966Z,25.82
2023-05-05T12:03:02.499Z,25.75
2023-05-05T12:05:35.742Z,26.50
2023-05-05T12:08:07.783Z,27.34
2023-05-05T12:10:38.301Z,27.85
2023-05-05T12:13:18.497Z,26.94
2023-05-05T12:15:48.837Z,26.81
2023-05-05T12:18:20.211Z,26.47
2023-05-05T12:20:50.077Z,27.11
2023-05-05T12:23:18.427Z,26.69
2023-05-05T12:25:49.362Z,26.55
2023-05-05T12:28:17.597Z,26.33
2023-05-05T12:30:57.736Z,26.57
2023-05-05T12:33:26.286Z,26.95
2023-05-05T12:35:56.441Z,27.75
2023-05-05T12:38:27.202Z,28.20
2023-05-05T12:40:57.851Z,27.92
2023-05-05T12:43:31.387Z,27.69
2023-05-05T12:46:03.767Z,28.28
2023-05-05T12:48:32.076Z,28.26
2023-05-05T12:51:20.028Z,28.10
2023-05-05T12:54:03.616Z,28.03
2023-05-05T12:56:36.786Z,28.24
2023-05-05T12:59:07.737Z,28.42
2023-05-05T13:01:37.465Z,27.96
2023-05-05T13:04:10.855Z,27.80
2023-05-05T13:06:42.685Z,27.83
2023-05-05T13:09:25.098Z,28.50
2023-05-05T13:11:56.442Z,28.63
2023-05-05T13:14:24.857Z,28.41
2023-05-05T13:16:54.205Z,27.89
2023-05-05T13:19:23.730Z,27.49
2023-05-05T13:21:53.541Z,27.17
2023-05-05T13:24:28.596Z,27.05
2023-05-05T13:27:04.162Z,27.55
2023-05-05T13:29:35.471Z,27.10
2023-05-05T13:32:04.185Z,27.23
2023-05-05T13:34:32.443Z,26.99
2023-05-05T13:37:02.507Z,26.77
2023-05-05T13:39:30.968Z,26.72
2023-05-05T13:41:59.162Z,26.87
2023-05-05T13:44:27.375Z,26.57
2023-05-05T13:46:55.896Z,26.71
2023-05-05T13:49:24.125Z,27.11
2023-05-05T13:51:52.220Z,26.62
2023-05-05T13:54:21.993Z,26.44
2023-05-05T13:56:50.122Z,26.47
2023-05-05T13:59:18.460Z,25.93
2023-05-05T14:01:46.799Z,25.76
2023-05-05T14:04:15.553Z,25.29
2023-05-05T14:06:47.222Z,25.15
2023-05-05T14:09:24.813Z,25.17
2023-05-05T14:11:53.718Z,24.97
2023-05-05T14:14:24.628Z,24.74
2023-05-05T14:16:53.384Z,24.43
2023-05-05T14:19:24.689Z,24.04
2023-05-05T14:21:53.205Z,24.06
2023-05-05T14:24:23.448Z,23.79
2023-05-05T14:26:51.899Z,23.92
2023-05-05T14:29:20.156Z,23.56
2023-05-05T14:31:48.383Z,23.52
2023-05-05T14:34:26.862Z,23.45
2023-05-05T14:37:08.607Z,23.23
2023-05-05T14:39:46.644Z,22.97
2023-05-05T14:42:29.385Z,23.05
2023-05-05T14:45:03.267Z,23.08
2023-05-05T14:47:49.375Z,23.03
2023-05-05T14:50:44.591Z,23.10
2023-05-05T14:53:27.038Z,23.06
2023-05-05T14:56:17.679Z,22.93
2023-05-05T15:01:06.145Z,22.47
2023-05-05T15:03:49.309Z,22.42
2023-05-05T15:06:31.985Z,22.26
2023-05-05T15:09:06.326Z,22.07
2023-05-05T15:11:43.097Z,22.01
2023-05-05T15:14:38.465Z,21.93
2023-05-05T15:17:20.611Z,21.87
2023-05-05T15:20:02.136Z,21.74
2023-05-05T15:22:33.658Z,21.70
2023-05-05T15:25:16.418Z,21.63
2023-05-05T15:27:52.050Z,21.46
2023-05-05T15:30:27.367Z,21.28
2023-05-05T15:33:05.908Z,21.30
2023-05-05T15:35:38.443Z,21.32
2023-05-05T15:38:18.234Z,21.12
2023-05-05T15:41:06.692Z,21.19
2023-05-05T15:43:40.498Z,21.13
2023-05-05T15:46:23.080Z,21.04
2023-05-05T15:48:59.993Z,20.97
2023-05-05T15:54:32.174Z,20.45
2023-05-05T15:57:06.785Z,20.03
2023-05-05T15:59:47.150Z,19.74
2023-05-05T16:02:31.605Z,19.20
2023-05-05T16:05:31.070Z,18.84
2023-05-05T16:08:17.195Z,18.46
2023-05-05T16:11:07.314Z,18.20
2023-05-05T16:13:40.445Z,17.82
2023-05-05T16:16:34.384Z,17.52
2023-05-05T16:19:20.732Z,17.32
2023-05-05T16:22:06.553Z,17.16
2023-05-05T16:24:44.312Z,17.05
2023-05-05T16:27:21.208Z,16.73
2023-05-05T16:29:59.909Z,16.54
2023-05-05T16:32:33.817Z,16.30
2023-05-05T16:35:16.161Z,16.08
2023-05-05T16:38:01.738Z,15.86
2023-05-05T16:40:36.548Z,16.02
2023-05-05T16:43:32.183Z,15.98
2023-05-05T16:46:12.523Z,15.91
2023-05-05T16:48:48.436Z,15.79
2023-05-05T16:51:26.239Z,15.86
2023-05-05T16:54:13.935Z,16.07
2023-05-05T16:56:54.463Z,16.22
2023-05-05T16:59:31.689Z,16.34
2023-05-05T17:02:03.490Z,16.42
2023-05-05T17:04:48.088Z,16.54
2023-05-05T17:07:21.662Z,16.67
2023-05-05T17:09:59.888Z,16.80
2023-05-05T17:12:38.418Z,16.92
2023-05-05T17:15:17.357Z,17.00
2023-05-05T17:17:51.871Z,17.09
2023-05-05T17:20:29.505Z,17.08
2023-05-05T17:22:59.929Z,17.17
2023-05-05T17:25:43.438Z,17.21
2023-05-05T17:28:26.449Z,17.17
2023-05-05T17:31:02.564Z,17.12
2023-05-05T17:33:35.445Z,17.18
2023-05-05T17:36:21.338Z,17.18
2023-05-05T17:39:07.483Z,17.17
2023-05-05T17:41:49.319Z,17.21
2023-05-05T17:44:22.322Z,17.26
2023-05-05T17:46:54.621Z,17.29
2023-05-05T17:49:25.199Z,17.30
2023-05-05T17:51:53.446Z,17.23
2023-05-05T17:54:23.537Z,17.24
2023-05-05T17:56:53.215Z,17.25
2023-05-05T17:59:21.502Z,17.16
2023-05-05T18:01:49.842Z,17.14
2023-05-05T18:04:17.982Z,17.14
2023-05-05T18:06:46.398Z,17.05
2023-05-05T18:09:16.793Z,17.01
2023-05-05T18:11:44.907Z,17.03
2023-05-05T18:14:14.744Z,16.96
2023-05-05T18:16:47.664Z,16.92
2023-05-05T18:19:16.204Z,16.91
2023-05-05T18:21:44.322Z,16.89
2023-05-05T18:24:20.104Z,16.82
2023-05-05T18:26:50.019Z,16.78
2023-05-05T18:29:22.731Z,16.68
2023-05-05T18:31:54.741Z,16.74
2023-05-05T18:34:23.120Z,16.74
2023-05-05T18:36:54.359Z,16.71
2023-05-05T18:39:22.572Z,16.68
2023-05-05T18:41:51.007Z,16.63
2023-05-05T18:44:19.910Z,16.59
2023-05-05T18:46:49.863Z,16.53
2023-05-05T18:49:18.183Z,16.49
2023-05-05T18:51:46.383Z,16.44
2023-05-05T18:54:14.750Z,16.42
2023-05-05T18:56:43.122Z,16.41
2023-05-05T18:59:11.753Z,16.38
2023-05-05T19:01:41.053Z,16.36
2023-05-05T19:04:26.649Z,16.32
2023-05-05T19:06:58.159Z,16.26
2023-05-05T19:09:26.995Z,16.23
2023-05-05T19:11:55.592Z,16.23
2023-05-05T19:14:23.903Z,16.18
2023-05-05T19:16:52.565Z,16.12
2023-05-05T19:19:22.236Z,16.11
2023-05-05T19:21:50.628Z,16.04
2023-05-05T19:24:18.748Z,15.98
2023-05-05T19:26:49.257Z,15.93
2023-05-05T19:29:17.886Z,15.91
2023-05-05T19:31:46.086Z,15.88
2023-05-05T19:34:14.318Z,15.88
2023-05-05T19:36:44.093Z,15.84
2023-05-05T19:39:13.827Z,15.82
2023-05-05T19:41:44.140Z,15.78
2023-05-05T19:44:12.825Z,15.73
2023-05-05T19:46:41.026Z,15.63
2023-05-05T19:49:09.702Z,15.56
2023-05-05T19:51:37.910Z,15.50
2023-05-05T19:54:07.932Z,15.39
2023-05-05T19:56:36.534Z,15.30
2023-05-05T20:01:56.992Z,15.16
2023-05-05T20:04:25.381Z,15.14
2023-05-05T20:06:53.575Z,15.11
2023-05-05T20:09:21.824Z,15.08
2023-05-05T20:11:50.013Z,15.05
2023-05-05T20:14:18.261Z,14.98
2023-05-05T20:16:46.941Z,14.89
2023-05-05T20:19:17.023Z,14.82
2023-05-05T20:21:45.232Z,14.70
2023-05-05T20:24:13.521Z,14.61
2023-05-05T20:26:43.995Z,14.52
2023-05-05T20:29:14.765Z,14.40
2023-05-05T20:31:43.523Z,14.31
2023-05-05T20:34:11.795Z,14.22
2023-05-05T20:36:41.439Z,14.12
2023-05-05T20:39:16.419Z,14.01
2023-05-05T20:41:47.456Z,14.07
2023-05-05T20:44:15.696Z,13.97
2023-05-05T20:46:43.879Z,13.92
2023-05-05T20:49:12.107Z,13.82
2023-05-05T20:51:44.033Z,13.79
2023-05-05T20:54:12.289Z,13.71
2023-05-05T20:56:40.878Z,13.67
2023-05-05T20:59:08.967Z,13.67
2023-05-05T21:01:39.991Z,13.62
2023-05-05T21:04:08.283Z,13.48
2023-05-05T21:06:38.901Z,13.39
2023-05-05T21:09:08.551Z,13.31
2023-05-05T21:11:36.984Z,13.22
2023-05-05T21:14:05.669Z,13.17
2023-05-05T21:16:35.925Z,13.17
2023-05-05T21:19:06.998Z,13.12
2023-05-05T21:21:35.160Z,13.10
2023-05-05T21:24:08.430Z,12.99
2023-05-05T21:26:40.343Z,12.86
2023-05-05T21:29:08.641Z,12.77
2023-05-05T21:31:37.085Z,12.72
2023-05-05T21:34:05.412Z,12.69
2023-05-05T21:36:36.523Z,12.67
2023-05-05T21:39:04.944Z,12.60
2023-05-05T21:41:34.618Z,12.50
2023-05-05T21:44:02.997Z,12.42
2023-05-05T21:46:31.332Z,12.35
2023-05-05T21:48:59.523Z,12.27
2023-05-05T21:51:30.541Z,12.24
2023-05-05T21:54:00.018Z,12.24
2023-05-05T21:56:28.228Z,12.20
2023-05-05T21:58:57.819Z,12.21
2023-05-05T22:01:26.038Z,12.23
2023-05-05T22:03:54.808Z,12.20
2023-05-05T22:06:25.912Z,12.19
2023-05-05T22:08:54.077Z,12.13
2023-05-05T22:11:22.321Z,12.10
2023-05-05T22:13:53.017Z,12.04
2023-05-05T22:16:24.842Z,11.97
2023-05-05T22:18:57.701Z,11.94
2023-05-05T22:21:26.902Z,11.88
2023-05-05T22:23:55.154Z,11.80
2023-05-05T22:26:23.449Z,11.77
2023-05-05T22:28:51.583Z,11.72
2023-05-05T22:31:21.713Z,11.66
2023-05-05T22:33:51.647Z,11.59
2023-05-05T22:36:19.847Z,11.54
2023-05-05T22:38:50.401Z,11.48
2023-05-05T22:41:21.277Z,11.41
2023-05-05T22:43:52.346Z,11.35
2023-05-05T22:46:20.499Z,11.39
2023-05-05T22:48:49.209Z,11.31
2023-05-05T22:51:20.869Z,11.22
2023-05-05T22:53:49.021Z,11.20
2023-05-05T22:56:17.262Z,11.21
2023-05-05T22:58:46.548Z,11.16
2023-05-05T23:01:14.803Z,11.06
2023-05-05T23:03:43.374Z,10.97
2023-05-05T23:06:11.500Z,10.92
2023-05-05T23:11:29.714Z,10.83
2023-05-05T23:13:57.770Z,10.72
2023-05-05T23:16:26.047Z,10.65
2023-05-05T23:18:54.161Z,10.68
2023-05-05T23:21:25.379Z,10.71
2023-05-05T23:23:55.612Z,10.75
2023-05-05T23:26:23.926Z,10.72
2023-05-05T23:28:51.988Z,10.76
2023-05-05T23:31:20.187Z,10.73
2023-05-05T23:33:48.504Z,10.73
2023-05-05T23:36:16.730Z,10.65
2023-05-05T23:38:44.869Z,10.62
2023-05-05T23:41:14.569Z,10.57
2023-05-05T23:43:42.934Z,10.53
2023-05-05T23:46:11.095Z,10.46
2023-05-05T23:48:39.346Z,10.42
2023-05-05T23:51:07.433Z,10.36
2023-05-05T23:53:40.064Z,10.38
2023-05-05T23:56:08.502Z,10.41
2023-05-05T23:58:37.909Z,10.51
